createdAt,value
2019-04-01T00:00:32.386Z,99.90
2019-04-01T00:03:01.836Z,99.90
2019-04-01T00:05:30.808Z,99.90
2019-04-01T00:07:59.804Z,99.90
2019-04-01T00:10:28.765Z,99.90
2019-04-01T00:12:58.267Z,99.90
2019-04-01T00:15:27.823Z,99.90
2019-04-01T00:17:57.367Z,99.90
2019-04-01T00:20:26.828Z,99.90
2019-04-01T00:22:55.920Z,99.90
2019-04-01T00:25:25.351Z,99.90
2019-04-01T00:27:54.615Z,99.90
2019-04-01T00:30:24.107Z,99.90
2019-04-01T00:32:53.327Z,99.90
2019-04-01T00:35:22.627Z,99.90
2019-04-01T00:37:51.832Z,99.90
2019-04-01T00:40:20.989Z,99.90
2019-04-01T00:43:01.328Z,99.90
2019-04-01T00:45:30.991Z,99.90
2019-04-01T00:47:59.794Z,99.90
2019-04-01T00:50:29.027Z,99.90
2019-04-01T00:52:58.499Z,99.90
2019-04-01T00:55:27.304Z,99.90
2019-04-01T00:57:57.178Z,99.90
2019-04-01T01:00:26.462Z,99.90
2019-04-01T01:02:56.287Z,99.90
2019-04-01T01:05:25.943Z,99.90
2019-04-01T01:07:54.833Z,99.90
2019-04-01T01:10:24.087Z,99.90
2019-04-01T01:12:53.511Z,99.90
2019-04-01T01:15:22.739Z,99.90
2019-04-01T01:17:51.983Z,99.90
2019-04-01T01:20:20.879Z,99.90
2019-04-01T01:22:49.825Z,99.90
2019-04-01T01:25:19.473Z,99.90
2019-04-01T01:27:48.973Z,99.90
2019-04-01T01:30:18.166Z,99.90
2019-04-01T01:32:47.313Z,99.90
2019-04-01T01:35:16.563Z,99.90
2019-04-01T01:37:45.889Z,99.90
2019-04-01T01:40:15.141Z,99.90
2019-04-01T01:42:44.677Z,99.90
2019-04-01T01:45:13.911Z,99.90
2019-04-01T01:47:43.118Z,99.90
2019-04-01T01:50:12.474Z,99.90
2019-04-01T01:52:42.144Z,99.90
2019-04-01T01:55:11.560Z,99.90
2019-04-01T01:57:40.703Z,99.90
2019-04-01T02:00:10.121Z,99.90
2019-04-01T02:02:39.642Z,99.90
2019-04-01T02:05:08.629Z,99.90
2019-04-01T02:07:38.007Z,99.90
2019-04-01T02:10:07.784Z,99.90
2019-04-01T02:12:37.347Z,99.90
2019-04-01T02:15:06.755Z,99.90
2019-04-01T02:17:36.219Z,99.90
2019-04-01T02:20:05.927Z,99.90
2019-04-01T02:22:35.222Z,99.90
2019-04-01T02:25:04.486Z,99.90
2019-04-01T02:27:33.630Z,99.90
2019-04-01T02:30:03.117Z,99.90
2019-04-01T02:32:32.366Z,99.90
2019-04-01T02:35:01.545Z,99.90
2019-04-01T02:37:30.967Z,99.90
2019-04-01T02:40:21.932Z,99.90
2019-04-01T02:42:50.220Z,99.90
2019-04-01T02:45:19.360Z,99.90
2019-04-01T02:47:48.252Z,99.90
2019-04-01T02:50:17.721Z,99.90
2019-04-01T02:52:46.932Z,99.90
2019-04-01T02:55:16.199Z,99.90
2019-04-01T02:57:45.431Z,99.90
2019-04-01T03:00:14.737Z,99.90
2019-04-01T03:02:43.816Z,99.90
2019-04-01T03:05:13.181Z,99.90
2019-04-01T03:07:42.184Z,99.90
2019-04-01T03:10:11.965Z,99.90
2019-04-01T03:12:41.161Z,99.90
2019-04-01T03:15:10.481Z,99.90
2019-04-01T03:17:39.689Z,99.90
2019-04-01T03:20:08.677Z,99.90
2019-04-01T03:22:37.800Z,99.90
2019-04-01T03:25:07.229Z,99.90
2019-04-01T03:27:36.564Z,99.90
2019-04-01T03:30:05.749Z,99.90
2019-04-01T03:32:34.565Z,99.90
2019-04-01T03:35:03.488Z,99.90
2019-04-01T03:37:32.367Z,99.90
2019-04-01T03:40:01.530Z,99.90
2019-04-01T03:42:31.215Z,99.90
2019-04-01T03:45:00.432Z,99.90
2019-04-01T03:47:30.251Z,99.90
2019-04-01T03:50:00.027Z,99.90
2019-04-01T03:52:30.034Z,99.90
2019-04-01T03:54:59.568Z,99.90
2019-04-01T03:57:29.049Z,99.90
2019-04-01T03:59:58.259Z,99.90
2019-04-01T04:02:27.950Z,99.90
2019-04-01T04:04:57.161Z,99.90
2019-04-01T04:07:26.378Z,99.90
2019-04-01T04:09:55.903Z,99.90
2019-04-01T04:12:25.080Z,99.90
2019-04-01T04:14:53.924Z,99.90
2019-04-01T04:17:23.552Z,99.90
2019-04-01T04:19:52.984Z,99.90
2019-04-01T04:22:22.241Z,99.90
2019-04-01T04:24:51.444Z,99.90
2019-04-01T04:27:20.959Z,99.90
2019-04-01T04:29:50.451Z,99.90
2019-04-01T04:32:20.216Z,99.90
2019-04-01T04:34:49.972Z,99.90
2019-04-01T04:37:19.490Z,99.90
2019-04-01T04:39:48.686Z,99.90
2019-04-01T04:42:17.904Z,99.90
2019-04-01T04:44:47.579Z,99.90
2019-04-01T04:47:17.455Z,99.90
2019-04-01T04:49:47.010Z,99.90
2019-04-01T04:52:16.507Z,99.90
2019-04-01T04:54:46.215Z,99.90
2019-04-01T04:57:15.515Z,99.90
2019-04-01T04:59:44.710Z,99.90
2019-04-01T05:02:14.491Z,99.90
2019-04-01T05:04:44.335Z,99.90
2019-04-01T05:07:14.042Z,99.90
2019-04-01T05:09:43.823Z,99.90
2019-04-01T05:12:13.055Z,99.90
2019-04-01T05:14:42.558Z,99.90
2019-04-01T05:17:11.753Z,99.90
2019-04-01T05:19:41.566Z,99.90
2019-04-01T05:22:11.275Z,99.90
2019-04-01T05:24:41.725Z,99.90
2019-04-01T05:27:13.207Z,99.90
2019-04-01T05:29:43.915Z,99.90
2019-04-01T05:32:16.058Z,99.90
2019-04-01T05:34:46.827Z,99.90
2019-04-01T05:37:16.163Z,99.90
2019-04-01T05:39:46.195Z,99.90
2019-04-01T05:42:15.907Z,99.90
2019-04-01T05:44:44.793Z,99.90
2019-04-01T05:47:14.099Z,99.90
2019-04-01T05:49:43.304Z,99.90
2019-04-01T05:52:13.207Z,99.90
2019-04-01T05:54:44.539Z,99.90
2019-04-01T05:57:15.466Z,99.90
2019-04-01T05:59:44.498Z,99.90
2019-04-01T06:02:13.990Z,99.90
2019-04-01T06:04:43.699Z,99.90
2019-04-01T06:07:13.037Z,99.90
2019-04-01T06:09:42.604Z,99.90
2019-04-01T06:12:11.887Z,99.90
2019-04-01T06:14:41.204Z,99.90
2019-04-01T06:17:10.703Z,99.90
2019-04-01T06:19:39.885Z,99.90
2019-04-01T06:22:09.254Z,99.90
2019-04-01T06:24:38.510Z,99.90
2019-04-01T06:27:07.439Z,99.90
2019-04-01T06:29:36.941Z,99.90
2019-04-01T06:32:06.671Z,99.90
2019-04-01T06:34:36.727Z,99.90
2019-04-01T06:37:06.022Z,99.90
2019-04-01T06:39:35.859Z,99.90
2019-04-01T06:42:07.166Z,99.90
2019-04-01T06:44:36.587Z,99.90
2019-04-01T06:47:06.191Z,99.90
2019-04-01T06:49:36.011Z,99.90
2019-04-01T06:52:05.532Z,99.90
2019-04-01T06:54:34.831Z,99.90
2019-04-01T06:57:04.207Z,99.90
2019-04-01T06:59:34.435Z,99.90
2019-04-01T07:02:03.630Z,99.90
2019-04-01T07:04:32.922Z,99.90
2019-04-01T07:07:02.781Z,99.90
2019-04-01T07:09:32.243Z,99.90
2019-04-01T07:12:01.476Z,99.90
2019-04-01T07:14:31.340Z,99.90
2019-04-01T07:17:00.672Z,99.90
2019-04-01T07:19:30.151Z,99.90
2019-04-01T07:21:59.775Z,99.90
2019-04-01T07:24:29.667Z,99.90
2019-04-01T07:26:59.006Z,99.90
2019-04-01T07:29:28.611Z,99.90
2019-04-01T07:31:57.880Z,99.90
2019-04-01T07:34:27.312Z,99.90
2019-04-01T07:36:56.683Z,99.90
2019-04-01T07:39:26.009Z,99.90
2019-04-01T07:41:55.709Z,99.90
2019-04-01T07:44:25.200Z,99.90
2019-04-01T07:46:54.909Z,99.90
2019-04-01T07:49:24.936Z,99.90
2019-04-01T07:51:54.867Z,99.90
2019-04-01T07:54:24.135Z,99.90
2019-04-01T07:56:53.390Z,99.90
2019-04-01T07:59:22.641Z,99.90
2019-04-01T08:01:52.932Z,99.90
2019-04-01T08:04:23.073Z,99.90
2019-04-01T08:06:52.691Z,99.90
2019-04-01T08:09:21.566Z,99.90
2019-04-01T08:11:51.171Z,99.90
2019-04-01T08:14:20.864Z,99.90
2019-04-01T08:16:50.629Z,99.90
2019-04-01T08:19:19.996Z,99.90
2019-04-01T08:21:52.326Z,99.90
2019-04-01T08:24:20.979Z,99.90
2019-04-01T08:26:50.379Z,99.90
2019-04-01T08:29:30.002Z,99.90
2019-04-01T08:31:50.814Z,99.90
2019-04-01T08:34:20.095Z,99.90
2019-04-01T08:36:48.891Z,99.90
2019-04-01T08:39:18.607Z,99.90
2019-04-01T08:41:47.591Z,99.90
2019-04-01T08:44:17.570Z,99.90
2019-04-01T08:46:47.439Z,99.90
2019-04-01T08:49:17.227Z,99.90
2019-04-01T08:51:46.747Z,99.90
2019-04-01T08:54:16.337Z,99.90
2019-04-01T08:56:45.842Z,99.90
2019-04-01T08:59:15.143Z,99.90
2019-04-01T09:01:44.644Z,99.90
2019-04-01T09:04:15.456Z,99.90
2019-04-01T09:06:44.780Z,99.90
2019-04-01T09:09:14.408Z,99.90
2019-04-01T09:11:44.484Z,99.80
2019-04-01T09:14:14.650Z,99.90
2019-04-01T09:16:44.740Z,99.60
2019-04-01T09:19:14.184Z,99.80
2019-04-01T09:21:43.662Z,99.10
2019-04-01T09:24:13.151Z,97.60
2019-04-01T09:26:42.541Z,96.40
2019-04-01T09:29:12.055Z,94.50
2019-04-01T09:31:41.763Z,94.60
2019-04-01T09:34:11.886Z,92.70
2019-04-01T09:36:41.110Z,96.90
2019-04-01T09:39:10.471Z,92.80
2019-04-01T09:41:39.835Z,94.90
2019-04-01T09:44:09.235Z,93.30
2019-04-01T09:46:38.792Z,89.60
2019-04-01T09:49:07.883Z,89.70
2019-04-01T09:51:48.010Z,90.80
2019-04-01T09:54:08.100Z,89.60
2019-04-01T09:56:37.345Z,85.30
2019-04-01T09:59:06.529Z,83.20
2019-04-01T10:01:36.247Z,84.00
2019-04-01T10:04:05.871Z,86.50
2019-04-01T10:06:35.294Z,78.40
2019-04-01T10:09:06.211Z,77.70
2019-04-01T10:11:35.927Z,75.90
2019-04-01T10:14:05.011Z,73.30
2019-04-01T10:16:34.026Z,74.90
2019-04-01T10:19:03.307Z,71.30
2019-04-01T10:21:33.259Z,72.40
2019-04-01T10:24:03.026Z,70.90
2019-04-01T10:26:32.737Z,69.40
2019-04-01T10:29:01.983Z,68.40
2019-04-01T10:31:31.243Z,70.40
2019-04-01T10:34:00.663Z,68.00
2019-04-01T10:36:29.766Z,67.40
2019-04-01T10:38:59.459Z,69.30
2019-04-01T10:41:28.555Z,66.80
2019-04-01T10:43:57.903Z,65.30
2019-04-01T10:46:26.995Z,69.70
2019-04-01T10:48:56.715Z,64.40
2019-04-01T10:51:26.337Z,67.50
2019-04-01T10:53:55.545Z,66.40
2019-04-01T10:56:25.236Z,63.80
2019-04-01T10:58:54.860Z,63.30
2019-04-01T11:01:24.183Z,65.90
2019-04-01T11:03:53.050Z,62.90
2019-04-01T11:06:23.467Z,60.80
2019-04-01T11:08:52.979Z,59.30
2019-04-01T11:11:22.435Z,59.70
2019-04-01T11:13:53.149Z,58.30
2019-04-01T11:16:23.083Z,57.40
2019-04-01T11:18:57.942Z,57.40
2019-04-01T11:21:25.387Z,57.60
2019-04-01T11:23:57.391Z,57.70
2019-04-01T11:26:26.992Z,55.90
2019-04-01T11:28:56.420Z,55.40
2019-04-01T11:31:25.777Z,56.70
2019-04-01T11:33:55.621Z,54.90
2019-04-01T11:36:24.544Z,54.80
2019-04-01T11:38:54.056Z,55.90
2019-04-01T11:41:23.777Z,54.80
2019-04-01T11:43:53.843Z,55.20
2019-04-01T11:46:23.520Z,56.60
2019-04-01T11:48:55.784Z,56.10
2019-04-01T11:51:32.472Z,55.50
2019-04-01T11:53:56.783Z,54.10
2019-04-01T11:56:26.822Z,54.20
2019-04-01T11:58:56.969Z,54.30
2019-04-01T12:01:26.480Z,54.10
2019-04-01T12:03:56.099Z,54.10
2019-04-01T12:06:25.191Z,52.30
2019-04-01T12:08:55.009Z,52.90
2019-04-01T12:11:23.940Z,53.20
2019-04-01T12:13:53.309Z,51.40
2019-04-01T12:16:22.463Z,52.30
2019-04-01T12:18:51.674Z,52.20
2019-04-01T12:21:20.833Z,50.90
2019-04-01T12:23:50.051Z,51.00
2019-04-01T12:26:19.151Z,52.40
2019-04-01T12:28:49.147Z,52.70
2019-04-01T12:31:18.407Z,52.10
2019-04-01T12:33:48.271Z,52.70
2019-04-01T12:36:19.118Z,51.70
2019-04-01T12:38:49.277Z,53.40
2019-04-01T12:41:19.068Z,54.30
2019-04-01T12:43:48.370Z,52.10
2019-04-01T12:46:17.802Z,52.60
2019-04-01T12:48:46.998Z,51.60
2019-04-01T12:51:16.255Z,52.10
2019-04-01T12:53:46.232Z,52.50
2019-04-01T12:56:15.524Z,51.80
2019-04-01T12:58:44.910Z,50.60
2019-04-01T13:01:14.399Z,50.60
2019-04-01T13:03:44.093Z,53.00
2019-04-01T13:06:13.231Z,53.10
2019-04-01T13:08:43.616Z,51.40
2019-04-01T13:11:13.381Z,49.80
2019-04-01T13:13:43.902Z,51.70
2019-04-01T13:16:14.325Z,51.50
2019-04-01T13:18:43.817Z,50.80
2019-04-01T13:21:13.203Z,49.80
2019-04-01T13:23:42.880Z,50.30
2019-04-01T13:26:12.395Z,49.80
2019-04-01T13:28:42.624Z,50.30
2019-04-01T13:31:11.740Z,50.90
2019-04-01T13:33:41.004Z,51.30
2019-04-01T13:36:10.605Z,51.50
2019-04-01T13:38:40.044Z,50.50
2019-04-01T13:41:13.065Z,50.60
2019-04-01T13:43:41.167Z,50.80
2019-04-01T13:46:10.895Z,50.60
2019-04-01T13:48:40.323Z,51.00
2019-04-01T13:51:09.929Z,51.70
2019-04-01T13:53:39.183Z,50.90
2019-04-01T13:56:10.402Z,50.10
2019-04-01T13:58:39.700Z,50.80
2019-04-01T14:01:09.070Z,50.40
2019-04-01T14:03:38.705Z,51.40
2019-04-01T14:06:08.349Z,50.80
2019-04-01T14:08:37.753Z,50.70
2019-04-01T14:11:07.043Z,50.90
2019-04-01T14:13:36.398Z,50.90
2019-04-01T14:16:05.891Z,51.30
2019-04-01T14:18:35.282Z,52.00
2019-04-01T14:21:15.318Z,52.00
2019-04-01T14:23:35.828Z,52.20
2019-04-01T14:26:05.002Z,52.20
2019-04-01T14:28:33.980Z,53.10
2019-04-01T14:31:03.444Z,53.00
2019-04-01T14:33:32.974Z,54.20
2019-04-01T14:36:02.880Z,52.40
2019-04-01T14:38:33.868Z,53.90
2019-04-01T14:41:02.960Z,54.50
2019-04-01T14:43:32.474Z,52.90
2019-04-01T14:46:01.712Z,53.80
2019-04-01T14:48:31.422Z,54.00
2019-04-01T14:51:01.088Z,53.20
2019-04-01T14:53:30.243Z,54.70
2019-04-01T14:56:18.712Z,54.00
2019-04-01T14:58:47.839Z,54.80
2019-04-01T15:01:17.582Z,54.40
2019-04-01T15:03:47.319Z,54.40
2019-04-01T15:06:17.131Z,53.50
2019-04-01T15:08:48.109Z,53.60
2019-04-01T15:11:17.845Z,54.50
2019-04-01T15:13:47.026Z,54.40
2019-04-01T15:16:16.374Z,54.70
2019-04-01T15:18:45.610Z,55.00
2019-04-01T15:21:14.870Z,53.90
2019-04-01T15:23:44.405Z,54.30
2019-04-01T15:26:13.554Z,55.20
2019-04-01T15:28:42.708Z,54.50
2019-04-01T15:31:11.972Z,55.70
2019-04-01T15:33:40.866Z,55.20
2019-04-01T15:36:18.678Z,56.00
2019-04-01T15:38:47.679Z,55.50
2019-04-01T15:41:16.658Z,55.10
2019-04-01T15:43:46.111Z,55.10
2019-04-01T15:46:14.931Z,56.00
2019-04-01T15:48:43.762Z,54.90
2019-04-01T15:51:12.999Z,56.40
2019-04-01T15:53:41.811Z,56.50
2019-04-01T15:56:10.640Z,57.30
2019-04-01T15:58:40.082Z,57.30
2019-04-01T16:01:09.350Z,57.40
2019-04-01T16:03:38.682Z,58.40
2019-04-01T16:06:08.008Z,57.80
2019-04-01T16:08:37.275Z,58.90
2019-04-01T16:11:06.522Z,58.80
2019-04-01T16:13:35.404Z,59.30
2019-04-01T16:16:04.652Z,60.70
2019-04-01T16:18:34.078Z,60.50
2019-04-01T16:21:03.346Z,60.50
2019-04-01T16:23:32.718Z,61.70
2019-04-01T16:26:01.548Z,60.20
2019-04-01T16:28:30.447Z,62.20
2019-04-01T16:30:59.287Z,62.40
2019-04-01T16:33:28.397Z,62.20
2019-04-01T16:35:57.225Z,63.20
2019-04-01T16:38:26.407Z,64.30
2019-04-01T16:40:55.898Z,64.20
2019-04-01T16:43:25.325Z,65.00
2019-04-01T16:45:55.958Z,64.90
2019-04-01T16:48:25.040Z,65.70
2019-04-01T16:50:55.926Z,67.10
2019-04-01T16:53:24.816Z,68.50
2019-04-01T16:55:54.051Z,69.10
2019-04-01T16:58:22.858Z,70.10
2019-04-01T17:00:52.365Z,70.60
2019-04-01T17:03:21.144Z,71.10
2019-04-01T17:05:50.080Z,71.60
2019-04-01T17:08:19.048Z,71.60
2019-04-01T17:10:48.614Z,71.70
2019-04-01T17:13:17.531Z,73.20
2019-04-01T17:15:46.477Z,73.40
2019-04-01T17:18:15.763Z,74.90
2019-04-01T17:20:44.542Z,75.50
2019-04-01T17:23:13.650Z,76.70
2019-04-01T17:25:42.616Z,78.90
2019-04-01T17:28:11.505Z,79.10
2019-04-01T17:30:40.429Z,82.00
2019-04-01T17:33:09.775Z,82.80
2019-04-01T17:35:38.650Z,85.70
2019-04-01T17:38:08.345Z,87.70
2019-04-01T17:40:37.722Z,89.10
2019-04-01T17:43:09.321Z,90.30
2019-04-01T17:45:40.347Z,91.00
2019-04-01T17:48:10.330Z,91.30
2019-04-01T17:50:39.175Z,92.30
2019-04-01T17:53:09.858Z,92.60
2019-04-01T17:55:39.016Z,93.00
2019-04-01T17:58:08.094Z,93.50
2019-04-01T18:00:41.945Z,94.00
2019-04-01T18:03:11.580Z,94.40
2019-04-01T18:05:40.528Z,94.80
2019-04-01T18:08:09.979Z,94.90
2019-04-01T18:10:39.061Z,94.80
2019-04-01T18:13:07.848Z,95.00
2019-04-01T18:15:37.359Z,95.20
2019-04-01T18:18:06.738Z,96.10
2019-04-01T18:20:36.700Z,96.00
2019-04-01T18:23:06.310Z,96.10
2019-04-01T18:25:37.261Z,96.10
2019-04-01T18:28:06.255Z,96.60
2019-04-01T18:30:35.589Z,96.70
2019-04-01T18:33:04.517Z,97.00
2019-04-01T18:35:33.713Z,97.00
2019-04-01T18:38:02.558Z,97.20
2019-04-01T18:40:35.414Z,97.60
2019-04-01T18:43:03.634Z,97.80
2019-04-01T18:45:32.822Z,98.10
2019-04-01T18:48:01.761Z,98.00
2019-04-01T18:50:31.094Z,98.30
2019-04-01T18:52:59.899Z,98.40
2019-04-01T18:55:31.146Z,98.50
2019-04-01T18:58:00.253Z,99.20
2019-04-01T19:00:29.483Z,99.10
2019-04-01T19:02:59.092Z,99.10
2019-04-01T19:05:28.017Z,99.10
2019-04-01T19:07:57.250Z,98.90
2019-04-01T19:10:26.386Z,99.30
2019-04-01T19:13:05.680Z,99.50
2019-04-01T19:15:26.859Z,99.50
2019-04-01T19:17:56.961Z,99.70
2019-04-01T19:20:25.906Z,99.70
2019-04-01T19:22:55.018Z,99.70
2019-04-01T19:25:25.755Z,99.90
2019-04-01T19:27:54.706Z,99.90
2019-04-01T19:30:23.637Z,99.90
2019-04-01T19:32:52.830Z,99.90
2019-04-01T19:35:22.338Z,99.90
2019-04-01T19:37:52.097Z,99.90
2019-04-01T19:40:23.002Z,99.90
2019-04-01T19:42:52.557Z,99.90
2019-04-01T19:45:21.418Z,99.90
2019-04-01T19:47:50.241Z,99.90
2019-04-01T19:50:20.772Z,99.90
2019-04-01T19:52:50.299Z,99.90
2019-04-01T19:55:19.172Z,99.90
2019-04-01T19:57:47.988Z,99.90
2019-04-01T20:00:27.528Z,99.90
2019-04-01T20:02:48.428Z,99.90
2019-04-01T20:05:17.634Z,99.90
2019-04-01T20:07:46.781Z,99.90
2019-04-01T20:10:17.032Z,99.90
2019-04-01T20:12:46.693Z,99.90
2019-04-01T20:15:17.062Z,99.90
2019-04-01T20:17:45.972Z,99.90
2019-04-01T20:20:15.534Z,99.90
2019-04-01T20:22:45.158Z,99.90
2019-04-01T20:25:14.219Z,99.90
2019-04-01T20:27:44.335Z,99.90
2019-04-01T20:30:15.003Z,99.90
2019-04-01T20:32:44.318Z,99.90
2019-04-01T20:35:23.711Z,99.90
2019-04-01T20:37:48.396Z,99.90
2019-04-01T20:40:17.676Z,99.90
2019-04-01T20:42:47.002Z,99.90
2019-04-01T20:45:16.444Z,99.90
2019-04-01T20:47:45.597Z,99.90
2019-04-01T20:50:14.638Z,99.90
2019-04-01T20:52:43.559Z,99.90
2019-04-01T20:55:13.450Z,99.90
2019-04-01T20:57:43.135Z,99.90
2019-04-01T21:00:12.686Z,99.90
2019-04-01T21:02:42.027Z,99.90
2019-04-01T21:05:10.994Z,99.90
2019-04-01T21:07:40.126Z,99.90
2019-04-01T21:10:10.606Z,99.90
2019-04-01T21:12:40.782Z,99.90
2019-04-01T21:15:10.023Z,99.90
2019-04-01T21:17:40.497Z,99.90
2019-04-01T21:20:10.237Z,99.90
2019-04-01T21:22:39.402Z,99.90
2019-04-01T21:25:08.769Z,99.90
2019-04-01T21:27:38.041Z,99.90
2019-04-01T21:30:08.555Z,99.90
2019-04-01T21:32:37.464Z,99.90
2019-04-01T21:35:07.170Z,99.90
2019-04-01T21:37:36.314Z,99.90
2019-04-01T21:40:06.735Z,99.90
2019-04-01T21:42:36.118Z,99.90
2019-04-01T21:45:06.254Z,99.90
2019-04-01T21:47:35.434Z,99.90
2019-04-01T21:50:06.386Z,99.90
2019-04-01T21:52:36.141Z,99.90
2019-04-01T21:55:08.008Z,99.90
2019-04-01T21:57:36.557Z,99.90
2019-04-01T22:00:08.769Z,99.90
2019-04-01T22:02:38.226Z,99.90
2019-04-01T22:05:08.025Z,99.90
2019-04-01T22:07:38.314Z,99.90
2019-04-01T22:10:07.951Z,99.90
2019-04-01T22:12:37.109Z,99.90
2019-04-01T22:15:06.497Z,99.90
2019-04-01T22:17:35.668Z,99.90
2019-04-01T22:20:06.268Z,99.90
2019-04-01T22:22:35.180Z,99.90
2019-04-01T22:25:05.950Z,99.90
2019-04-01T22:27:35.076Z,99.90
2019-04-01T22:30:04.945Z,99.90
2019-04-01T22:32:34.031Z,99.90
2019-04-01T22:35:05.163Z,99.90
2019-04-01T22:37:34.050Z,99.90
2019-04-01T22:40:03.099Z,99.90
2019-04-01T22:42:32.182Z,99.90
2019-04-01T22:45:01.489Z,99.90
2019-04-01T22:47:30.271Z,99.90
2019-04-01T22:49:59.953Z,99.90
2019-04-01T22:52:29.086Z,99.90
2019-04-01T22:54:59.154Z,99.90
2019-04-01T22:57:28.091Z,99.90
2019-04-01T22:59:57.014Z,99.90
2019-04-01T23:02:25.865Z,99.90
2019-04-01T23:04:55.004Z,99.90
2019-04-01T23:07:24.159Z,99.90
2019-04-01T23:09:53.346Z,99.90
2019-04-01T23:12:22.744Z,99.90
2019-04-01T23:14:52.099Z,99.90
2019-04-01T23:17:21.499Z,99.90
2019-04-01T23:19:50.672Z,99.90
2019-04-01T23:22:19.826Z,99.90
2019-04-01T23:24:48.627Z,99.90
2019-04-01T23:27:20.660Z,99.90
2019-04-01T23:29:51.251Z,99.90
2019-04-01T23:32:21.245Z,99.90
2019-04-01T23:34:50.524Z,99.90
2019-04-01T23:37:19.393Z,99.90
2019-04-01T23:39:48.279Z,99.90
2019-04-01T23:42:17.115Z,99.90
2019-04-01T23:44:46.230Z,99.90
2019-04-01T23:47:16.180Z,99.90
2019-04-01T23:49:45.660Z,99.90
2019-04-01T23:52:14.584Z,99.90
2019-04-01T23:54:43.853Z,99.90
2019-04-01T23:57:13.399Z,99.90
2019-04-01T23:59:42.802Z,99.90
